createdAt,value
2023-01-30T04:09:18.994Z,9.45
2023-01-30T04:12:07.148Z,8.45
2023-01-30T04:17:54.465Z,7.82
2023-01-30T04:20:44.279Z,9.25
2023-01-30T04:23:16.130Z,8.57
2023-01-30T04:26:02.273Z,10.45
2023-01-30T04:28:36.319Z,6.93
2023-01-30T04:31:04.421Z,8.23
2023-01-30T04:33:51.295Z,7.38
2023-01-30T04:36:18.870Z,8.65
2023-01-30T04:38:48.989Z,7.95
2023-01-30T04:41:18.091Z,7.90
2023-01-30T04:43:51.167Z,7.03
2023-01-30T04:46:32.665Z,7.93
2023-01-30T04:49:02.137Z,6.70
2023-01-30T04:51:29.354Z,4.72
2023-01-30T04:54:01.794Z,7.07
2023-01-30T04:56:34.204Z,6.60
2023-01-30T04:59:04.827Z,5.57
2023-01-30T05:01:39.604Z,5.50
2023-01-30T05:08:12.560Z,5.32
2023-01-30T05:11:07.343Z,4.45
2023-01-30T05:13:37.074Z,4.05
2023-01-30T05:16:08.657Z,3.60
2023-01-30T05:18:39.652Z,4.38
2023-01-30T05:21:32.647Z,4.10
2023-01-30T05:24:02.734Z,3.00
2023-01-30T05:26:29.884Z,4.43
2023-01-30T05:28:59.744Z,3.85
2023-01-30T05:34:50.077Z,4.43
2023-01-30T05:37:17.026Z,1.92
2023-01-30T05:39:44.797Z,3.65
2023-01-30T05:42:11.778Z,3.17
2023-01-30T05:44:38.714Z,4.43
2023-01-30T05:47:05.655Z,4.00
2023-01-30T05:49:32.718Z,4.43
2023-01-30T05:51:59.631Z,3.60
2023-01-30T05:54:26.860Z,4.28
2023-01-30T05:56:53.906Z,3.75
2023-01-30T05:59:20.933Z,2.53
2023-01-30T06:01:47.936Z,5.82
2023-01-30T06:04:20.815Z,3.88
2023-01-30T06:07:09.555Z,3.22
2023-01-30T06:13:15.612Z,2.80
2023-01-30T06:15:55.449Z,2.50
2023-01-30T06:18:51.066Z,1.95
2023-01-30T06:21:34.815Z,1.90
2023-01-30T06:24:16.075Z,3.75
2023-01-30T06:26:47.979Z,3.72
2023-01-30T06:35:15.936Z,2.50
2023-01-30T06:38:16.664Z,2.20
2023-01-30T06:41:10.987Z,2.78
2023-01-30T06:43:53.375Z,3.58
2023-01-30T06:46:24.087Z,2.55
2023-01-30T06:49:03.303Z,2.15
2023-01-30T06:51:35.559Z,2.28
2023-01-30T06:54:17.847Z,1.95
2023-01-30T06:56:48.351Z,3.28
2023-01-30T07:02:02.185Z,1.90
2023-01-30T07:04:29.310Z,3.05
2023-01-30T07:06:57.161Z,3.72
2023-01-30T07:09:24.168Z,3.30
2023-01-30T07:11:51.398Z,4.05
2023-01-30T07:14:18.370Z,1.67
2023-01-30T07:16:45.342Z,2.15
2023-01-30T07:19:12.315Z,1.02
2023-01-30T07:21:39.504Z,2.75
2023-01-30T07:24:07.179Z,4.15
2023-01-30T07:26:34.225Z,2.83
2023-01-30T07:29:01.256Z,2.78
2023-01-30T07:31:28.185Z,2.75
2023-01-30T07:33:55.125Z,2.30
2023-01-30T07:36:22.223Z,1.98
2023-01-30T07:38:50.021Z,3.92
2023-01-30T07:41:17.049Z,2.28
2023-01-30T07:43:44.061Z,3.95
2023-01-30T07:46:11.521Z,3.63
2023-01-30T07:48:38.876Z,2.28
2023-01-30T07:51:10.797Z,1.92
2023-01-30T07:53:50.130Z,2.47
2023-01-30T07:56:35.774Z,2.97
2023-01-30T07:59:05.760Z,4.45
2023-01-30T08:01:48.213Z,4.75
2023-01-30T08:04:25.232Z,2.83
2023-01-30T08:07:15.853Z,2.55
2023-01-30T08:10:05.233Z,4.43
2023-01-30T08:15:23.245Z,3.00
2023-01-30T08:18:01.870Z,4.32
2023-01-30T08:20:30.847Z,4.72
2023-01-30T08:23:05.948Z,2.42
2023-01-30T08:25:42.004Z,4.05
2023-01-30T08:28:10.176Z,1.73
2023-01-30T08:30:37.157Z,2.50
2023-01-30T08:33:04.238Z,2.72
2023-01-30T08:35:31.387Z,2.05
2023-01-30T08:37:58.475Z,1.95
2023-01-30T08:40:25.388Z,2.60
2023-01-30T08:42:53.837Z,3.20
2023-01-30T08:45:52.540Z,3.33
2023-01-30T08:54:44.855Z,3.03
2023-01-30T08:57:31.944Z,1.85
2023-01-30T09:00:34.641Z,2.40
2023-01-30T09:03:24.258Z,3.10
2023-01-30T09:08:46.217Z,3.75
2023-01-30T09:11:21.795Z,3.28
2023-01-30T09:13:51.441Z,2.65
2023-01-30T09:16:22.244Z,2.88
2023-01-30T09:18:52.623Z,2.17
2023-01-30T09:21:28.250Z,3.55
2023-01-30T09:23:58.060Z,2.60
2023-01-30T09:26:47.528Z,1.48
2023-01-30T09:29:22.947Z,4.93
2023-01-30T09:38:15.640Z,2.47
2023-01-30T09:42:02.430Z,3.17
2023-01-30T09:45:59.055Z,1.63
2023-01-30T09:49:14.357Z,3.67
2023-01-30T09:52:26.512Z,2.40
2023-01-30T10:11:04.285Z,3.08
2023-01-30T10:14:36.608Z,3.23
2023-01-30T10:17:54.111Z,2.75
2023-01-30T10:25:42.815Z,3.03
2023-01-30T10:28:31.052Z,2.25
2023-01-30T10:31:25.016Z,3.75
2023-01-30T10:34:35.963Z,3.03
2023-01-30T10:44:09.828Z,2.65
2023-01-30T10:47:19.550Z,3.78
2023-01-30T10:57:09.108Z,2.83
2023-01-30T11:04:26.224Z,1.77
2023-01-30T11:07:25.023Z,2.35
2023-01-30T11:10:46.366Z,1.98
2023-01-30T11:28:11.265Z,1.55
2023-01-30T11:30:47.038Z,3.20
2023-01-30T11:36:46.233Z,2.03
2023-01-30T11:39:31.182Z,2.30
2023-01-30T11:42:53.707Z,5.07
2023-01-30T12:33:36.265Z,3.85
2023-01-30T13:57:08.607Z,3.23
2023-01-30T16:32:01.775Z,2.30
2023-01-30T16:35:07.281Z,3.15
2023-01-30T16:38:20.201Z,3.60
2023-01-30T16:40:57.392Z,3.20
2023-01-30T16:44:09.273Z,3.45
2023-01-30T16:47:27.908Z,2.33
2023-01-30T17:23:15.107Z,3.05
2023-01-30T18:14:49.821Z,3.17
2023-01-30T18:18:05.599Z,4.93
2023-01-30T18:20:59.348Z,3.72
2023-01-30T18:23:30.266Z,2.63
2023-01-30T18:28:52.623Z,2.60
2023-01-30T18:31:24.317Z,3.50
2023-01-30T18:34:03.504Z,3.45
2023-01-30T18:36:54.077Z,2.92
2023-01-30T18:39:34.016Z,2.55
2023-01-30T18:42:10.151Z,5.20
2023-01-30T18:44:38.602Z,2.97
2023-01-30T18:47:41.907Z,2.45
2023-01-30T18:50:12.659Z,2.78
2023-01-30T18:52:54.860Z,2.40
2023-01-30T18:55:26.637Z,2.05
2023-01-30T18:57:55.011Z,3.65
2023-01-30T19:00:27.219Z,3.70
2023-01-30T19:02:54.958Z,2.60
2023-01-30T19:05:27.489Z,3.70
2023-01-30T19:08:06.135Z,2.25
2023-01-30T19:10:33.630Z,2.58
2023-01-30T19:19:13.117Z,4.38
2023-01-30T19:21:59.671Z,4.10
2023-01-30T19:25:06.317Z,2.30
2023-01-30T19:30:46.681Z,2.70
2023-01-30T19:33:25.490Z,2.42
2023-01-30T19:35:56.362Z,3.35
2023-01-30T19:38:31.435Z,3.28
2023-01-30T19:41:05.654Z,3.13
2023-01-30T19:43:37.880Z,3.15
2023-01-30T19:46:34.658Z,3.45
2023-01-30T19:49:06.433Z,2.38
2023-01-30T19:51:41.012Z,2.80
2023-01-30T19:54:20.821Z,3.65
2023-01-30T19:57:32.640Z,3.40
2023-01-30T20:00:19.182Z,3.03
2023-01-30T20:02:50.299Z,3.72
2023-01-30T20:05:21.366Z,3.80
2023-01-30T20:08:02.206Z,2.92
2023-01-30T20:11:39.074Z,3.65
2023-01-30T20:14:20.392Z,3.22
2023-01-30T20:17:02.333Z,4.10
2023-01-30T20:19:38.753Z,3.25
2023-01-30T20:22:33.323Z,2.58
2023-01-30T20:25:22.206Z,2.53
2023-01-30T20:28:12.563Z,2.80
2023-01-30T20:30:49.631Z,3.95
2023-01-30T20:33:35.847Z,4.95
2023-01-30T20:39:27.125Z,1.85
2023-01-30T20:41:57.419Z,2.53
2023-01-30T20:47:46.544Z,2.97
2023-01-30T20:50:47.006Z,1.92
2023-01-30T20:53:25.508Z,2.25
2023-01-30T20:56:11.875Z,2.45
2023-01-30T21:01:39.369Z,2.33
2023-01-30T21:04:11.372Z,2.22
2023-01-30T21:06:42.921Z,2.10
2023-01-30T21:09:24.221Z,2.10
2023-01-30T21:12:05.844Z,2.05
2023-01-30T21:14:39.446Z,1.77
2023-01-30T21:17:15.033Z,2.33
2023-01-30T21:19:44.708Z,3.47
2023-01-30T21:27:44.218Z,4.10
2023-01-30T21:30:40.553Z,4.38
2023-01-30T21:33:25.892Z,2.78
2023-01-30T21:35:53.178Z,2.28
2023-01-30T21:38:40.844Z,3.30
2023-01-30T21:41:44.442Z,2.55
2023-01-30T21:44:25.054Z,3.25
2023-01-30T21:46:55.800Z,3.70
2023-01-30T21:49:34.453Z,3.58
2023-01-30T21:52:19.589Z,4.43
2023-01-30T21:54:59.740Z,4.70
2023-01-30T21:57:27.769Z,3.70
2023-01-30T21:59:55.741Z,2.83
2023-01-30T22:02:49.772Z,4.35
2023-01-30T22:05:20.388Z,3.60
2023-01-30T22:07:49.249Z,3.35
2023-01-30T22:38:37.162Z,3.40
2023-01-30T22:41:09.086Z,2.92
2023-01-30T22:43:41.546Z,3.22
2023-01-30T22:46:16.749Z,3.47
2023-01-30T22:48:46.850Z,3.35
2023-01-30T22:51:27.438Z,3.15
2023-01-30T22:54:04.695Z,3.88
2023-01-30T22:57:03.119Z,4.10
2023-01-30T22:59:36.929Z,3.28
2023-01-30T23:02:09.039Z,3.13
2023-01-30T23:04:38.259Z,2.95
2023-01-30T23:07:07.658Z,1.85
2023-01-30T23:09:44.103Z,4.05
2023-01-30T23:12:41.262Z,1.75
2023-01-30T23:15:09.832Z,3.60
2023-01-30T23:17:55.879Z,2.47
2023-01-30T23:23:00.322Z,4.75
2023-01-30T23:25:49.546Z,4.32
2023-01-30T23:28:21.912Z,2.00
2023-01-30T23:33:43.122Z,2.53
2023-01-30T23:36:15.001Z,2.33
2023-01-30T23:38:48.559Z,4.55
2023-01-30T23:41:21.241Z,2.97
